sensor_id;sensor_type;location;lat;lon;timestamp;P1;durP1;ratioP1;P2;durP2;ratioP2
39654;SDS011;25336;59.944;11.010;2023-05-02T00:00:58;2.05;;;1.15;;
39654;SDS011;25336;59.944;11.010;2023-05-02T00:03:26;1.83;;;1.52;;
39654;SDS011;25336;59.944;11.010;2023-05-02T00:05:51;3.38;;;1.90;;
39654;SDS011;25336;59.944;11.010;2023-05-02T00:08:17;2.03;;;1.45;;
39654;SDS011;25336;59.944;11.010;2023-05-02T00:10:43;2.00;;;1.10;;
39654;SDS011;25336;59.944;11.010;2023-05-02T00:13:08;2.28;;;1.30;;
39654;SDS011;25336;59.944;11.010;2023-05-02T00:15:34;3.33;;;1.70;;
39654;SDS011;25336;59.944;11.010;2023-05-02T00:18:00;3.20;;;1.40;;
39654;SDS011;25336;59.944;11.010;2023-05-02T00:20:25;2.85;;;1.50;;
39654;SDS011;25336;59.944;11.010;2023-05-02T00:22:51;1.90;;;1.50;;
39654;SDS011;25336;59.944;11.010;2023-05-02T00:25:16;1.73;;;1.40;;
39654;SDS011;25336;59.944;11.010;2023-05-02T00:27:42;1.50;;;1.40;;
39654;SDS011;25336;59.944;11.010;2023-05-02T00:30:10;1.60;;;1.48;;
39654;SDS011;25336;59.944;11.010;2023-05-02T00:32:37;1.35;;;1.17;;
39654;SDS011;25336;59.944;11.010;2023-05-02T00:35:02;2.20;;;1.70;;
39654;SDS011;25336;59.944;11.010;2023-05-02T00:37:28;3.22;;;1.48;;
39654;SDS011;25336;59.944;11.010;2023-05-02T00:39:54;2.13;;;1.45;;
39654;SDS011;25336;59.944;11.010;2023-05-02T00:42:20;2.58;;;1.67;;
39654;SDS011;25336;59.944;11.010;2023-05-02T00:44:45;1.95;;;1.50;;
39654;SDS011;25336;59.944;11.010;2023-05-02T00:47:11;3.35;;;1.40;;
39654;SDS011;25336;59.944;11.010;2023-05-02T00:49:38;3.45;;;1.55;;
39654;SDS011;25336;59.944;11.010;2023-05-02T00:52:03;2.70;;;1.60;;
39654;SDS011;25336;59.944;11.010;2023-05-02T00:54:31;1.58;;;1.48;;
39654;SDS011;25336;59.944;11.010;2023-05-02T00:56:57;2.45;;;1.40;;
39654;SDS011;25336;59.944;11.010;2023-05-02T00:59:23;2.58;;;1.60;;
39654;SDS011;25336;59.944;11.010;2023-05-02T01:15:52;1.30;;;1.15;;
39654;SDS011;25336;59.944;11.010;2023-05-02T01:18:21;2.53;;;1.45;;
39654;SDS011;25336;59.944;11.010;2023-05-02T01:20:50;1.95;;;1.20;;
39654;SDS011;25336;59.944;11.010;2023-05-02T01:23:31;2.30;;;1.50;;
39654;SDS011;25336;59.944;11.010;2023-05-02T01:31:27;2.13;;;1.30;;
39654;SDS011;25336;59.944;11.010;2023-05-02T01:33:59;2.90;;;1.60;;
39654;SDS011;25336;59.944;11.010;2023-05-02T01:36:27;1.27;;;1.17;;
39654;SDS011;25336;59.944;11.010;2023-05-02T01:38:56;4.18;;;1.08;;
39654;SDS011;25336;59.944;11.010;2023-05-02T01:41:26;1.42;;;1.33;;
39654;SDS011;25336;59.944;11.010;2023-05-02T01:43:56;1.27;;;1.17;;
39654;SDS011;25336;59.944;11.010;2023-05-02T01:46:26;1.33;;;1.15;;
39654;SDS011;25336;59.944;11.010;2023-05-02T01:48:58;1.30;;;1.20;;
39654;SDS011;25336;59.944;11.010;2023-05-02T01:51:29;2.45;;;1.02;;
39654;SDS011;25336;59.944;11.010;2023-05-02T01:54:06;1.50;;;1.17;;
39654;SDS011;25336;59.944;11.010;2023-05-02T01:56:34;2.00;;;1.05;;
39654;SDS011;25336;59.944;11.010;2023-05-02T01:59:13;1.10;;;1.10;;
39654;SDS011;25336;59.944;11.010;2023-05-02T02:01:42;3.92;;;1.50;;
39654;SDS011;25336;59.944;11.010;2023-05-02T02:04:10;1.35;;;1.08;;
39654;SDS011;25336;59.944;11.010;2023-05-02T02:06:39;2.97;;;1.30;;
39654;SDS011;25336;59.944;11.010;2023-05-02T02:09:09;1.73;;;1.20;;
39654;SDS011;25336;59.944;11.010;2023-05-02T02:11:36;1.23;;;1.20;;
39654;SDS011;25336;59.944;11.010;2023-05-02T02:14:17;1.02;;;1.02;;
39654;SDS011;25336;59.944;11.010;2023-05-02T02:16:46;1.63;;;1.20;;
39654;SDS011;25336;59.944;11.010;2023-05-02T02:19:14;1.58;;;1.20;;
39654;SDS011;25336;59.944;11.010;2023-05-02T02:21:42;1.25;;;1.15;;
39654;SDS011;25336;59.944;11.010;2023-05-02T02:24:10;1.75;;;1.30;;
39654;SDS011;25336;59.944;11.010;2023-05-02T02:26:37;3.95;;;1.20;;
39654;SDS011;25336;59.944;11.010;2023-05-02T02:29:03;0.88;;;0.88;;
39654;SDS011;25336;59.944;11.010;2023-05-02T02:31:30;1.30;;;1.20;;
39654;SDS011;25336;59.944;11.010;2023-05-02T02:33:56;1.00;;;1.00;;
39654;SDS011;25336;59.944;11.010;2023-05-02T02:36:33;1.55;;;1.30;;
39654;SDS011;25336;59.944;11.010;2023-05-02T02:42:08;1.83;;;1.40;;
39654;SDS011;25336;59.944;11.010;2023-05-02T02:44:57;1.98;;;1.50;;
39654;SDS011;25336;59.944;11.010;2023-05-02T02:47:43;1.50;;;1.40;;
39654;SDS011;25336;59.944;11.010;2023-05-02T02:50:18;4.20;;;1.67;;
39654;SDS011;25336;59.944;11.010;2023-05-02T03:00:48;2.35;;;1.30;;
39654;SDS011;25336;59.944;11.010;2023-05-02T03:03:15;2.67;;;1.60;;
39654;SDS011;25336;59.944;11.010;2023-05-02T03:05:42;3.38;;;1.50;;
39654;SDS011;25336;59.944;11.010;2023-05-02T03:08:08;1.88;;;1.27;;
39654;SDS011;25336;59.944;11.010;2023-05-02T03:10:34;1.13;;;1.13;;
39654;SDS011;25336;59.944;11.010;2023-05-02T03:13:00;3.33;;;1.52;;
39654;SDS011;25336;59.944;11.010;2023-05-02T03:18:17;1.45;;;1.25;;
39654;SDS011;25336;59.944;11.010;2023-05-02T03:20:43;4.10;;;1.70;;
39654;SDS011;25336;59.944;11.010;2023-05-02T03:23:08;2.28;;;1.60;;
39654;SDS011;25336;59.944;11.010;2023-05-02T03:25:34;4.40;;;1.63;;
39654;SDS011;25336;59.944;11.010;2023-05-02T03:28:01;2.50;;;1.73;;
39654;SDS011;25336;59.944;11.010;2023-05-02T03:30:27;1.83;;;1.60;;
39654;SDS011;25336;59.944;11.010;2023-05-02T03:32:52;3.35;;;1.40;;
39654;SDS011;25336;59.944;11.010;2023-05-02T03:35:18;2.60;;;1.88;;
39654;SDS011;25336;59.944;11.010;2023-05-02T03:37:44;3.60;;;2.45;;
39654;SDS011;25336;59.944;11.010;2023-05-02T03:40:10;3.40;;;2.10;;
39654;SDS011;25336;59.944;11.010;2023-05-02T03:42:36;1.60;;;1.50;;
39654;SDS011;25336;59.944;11.010;2023-05-02T03:45:05;1.58;;;1.35;;
39654;SDS011;25336;59.944;11.010;2023-05-02T03:47:32;1.67;;;1.58;;
39654;SDS011;25336;59.944;11.010;2023-05-02T03:49:58;1.90;;;1.55;;
39654;SDS011;25336;59.944;11.010;2023-05-02T03:52:24;2.03;;;1.83;;
39654;SDS011;25336;59.944;11.010;2023-05-02T03:54:50;1.67;;;1.25;;
39654;SDS011;25336;59.944;11.010;2023-05-02T03:57:15;1.63;;;1.52;;
39654;SDS011;25336;59.944;11.010;2023-05-02T03:59:42;4.85;;;1.70;;
39654;SDS011;25336;59.944;11.010;2023-05-02T04:02:09;2.17;;;1.30;;
39654;SDS011;25336;59.944;11.010;2023-05-02T04:04:35;6.25;;;1.50;;
39654;SDS011;25336;59.944;11.010;2023-05-02T04:07:02;2.25;;;1.35;;
39654;SDS011;25336;59.944;11.010;2023-05-02T04:09:28;4.50;;;1.73;;
39654;SDS011;25336;59.944;11.010;2023-05-02T04:11:54;1.40;;;1.30;;
39654;SDS011;25336;59.944;11.010;2023-05-02T04:14:20;3.28;;;1.70;;
39654;SDS011;25336;59.944;11.010;2023-05-02T04:16:49;1.58;;;1.42;;
39654;SDS011;25336;59.944;11.010;2023-05-02T04:19:16;2.97;;;1.60;;
39654;SDS011;25336;59.944;11.010;2023-05-02T04:21:42;3.50;;;1.40;;
39654;SDS011;25336;59.944;11.010;2023-05-02T04:24:09;5.30;;;1.65;;
39654;SDS011;25336;59.944;11.010;2023-05-02T04:26:35;13.60;;;2.28;;
39654;SDS011;25336;59.944;11.010;2023-05-02T04:29:01;13.43;;;2.60;;
39654;SDS011;25336;59.944;11.010;2023-05-02T04:31:26;12.25;;;2.85;;
39654;SDS011;25336;59.944;11.010;2023-05-02T04:33:52;9.23;;;2.20;;
39654;SDS011;25336;59.944;11.010;2023-05-02T04:36:18;7.07;;;1.60;;
39654;SDS011;25336;59.944;11.010;2023-05-02T04:38:44;2.13;;;1.45;;
39654;SDS011;25336;59.944;11.010;2023-05-02T04:41:09;5.55;;;1.60;;
39654;SDS011;25336;59.944;11.010;2023-05-02T04:43:36;3.70;;;1.65;;
39654;SDS011;25336;59.944;11.010;2023-05-02T04:46:02;2.70;;;1.58;;
39654;SDS011;25336;59.944;11.010;2023-05-02T04:48:27;4.60;;;1.67;;
39654;SDS011;25336;59.944;11.010;2023-05-02T04:50:53;5.47;;;1.40;;
39654;SDS011;25336;59.944;11.010;2023-05-02T04:53:20;2.15;;;1.50;;
39654;SDS011;25336;59.944;11.010;2023-05-02T04:55:46;5.05;;;1.20;;
39654;SDS011;25336;59.944;11.010;2023-05-02T04:58:12;1.55;;;1.40;;
39654;SDS011;25336;59.944;11.010;2023-05-02T05:00:37;1.80;;;1.50;;
39654;SDS011;25336;59.944;11.010;2023-05-02T05:03:04;1.50;;;1.40;;
39654;SDS011;25336;59.944;11.010;2023-05-02T05:05:33;2.70;;;1.55;;
39654;SDS011;25336;59.944;11.010;2023-05-02T05:08:00;1.52;;;1.23;;
39654;SDS011;25336;59.944;11.010;2023-05-02T05:10:26;1.50;;;1.40;;
39654;SDS011;25336;59.944;11.010;2023-05-02T05:12:51;2.40;;;1.67;;
39654;SDS011;25336;59.944;11.010;2023-05-02T05:15:17;10.38;;;1.50;;
39654;SDS011;25336;59.944;11.010;2023-05-02T05:17:46;2.20;;;1.70;;
39654;SDS011;25336;59.944;11.010;2023-05-02T05:20:12;4.75;;;1.55;;
39654;SDS011;25336;59.944;11.010;2023-05-02T05:22:38;1.67;;;1.58;;
39654;SDS011;25336;59.944;11.010;2023-05-02T05:25:05;3.33;;;1.70;;
39654;SDS011;25336;59.944;11.010;2023-05-02T05:27:32;1.95;;;1.30;;
39654;SDS011;25336;59.944;11.010;2023-05-02T05:29:58;2.38;;;1.10;;
39654;SDS011;25336;59.944;11.010;2023-05-02T05:32:24;2.13;;;1.27;;
39654;SDS011;25336;59.944;11.010;2023-05-02T05:34:52;1.10;;;1.10;;
39654;SDS011;25336;59.944;11.010;2023-05-02T05:37:18;1.35;;;0.95;;
39654;SDS011;25336;59.944;11.010;2023-05-02T05:39:45;0.98;;;0.98;;
39654;SDS011;25336;59.944;11.010;2023-05-02T05:42:11;3.65;;;1.25;;
39654;SDS011;25336;59.944;11.010;2023-05-02T05:44:38;4.03;;;1.30;;
39654;SDS011;25336;59.944;11.010;2023-05-02T05:47:03;5.50;;;2.00;;
39654;SDS011;25336;59.944;11.010;2023-05-02T05:49:29;1.85;;;1.20;;
39654;SDS011;25336;59.944;11.010;2023-05-02T05:51:55;2.83;;;1.23;;
39654;SDS011;25336;59.944;11.010;2023-05-02T05:54:21;1.27;;;1.17;;
39654;SDS011;25336;59.944;11.010;2023-05-02T05:56:47;3.35;;;1.25;;
39654;SDS011;25336;59.944;11.010;2023-05-02T05:59:13;2.08;;;1.20;;
39654;SDS011;25336;59.944;11.010;2023-05-02T06:01:39;2.85;;;1.35;;
39654;SDS011;25336;59.944;11.010;2023-05-02T06:04:04;3.42;;;1.17;;
39654;SDS011;25336;59.944;11.010;2023-05-02T06:06:31;2.55;;;1.05;;
39654;SDS011;25336;59.944;11.010;2023-05-02T06:08:57;1.73;;;1.10;;
39654;SDS011;25336;59.944;11.010;2023-05-02T06:11:23;1.73;;;1.10;;
39654;SDS011;25336;59.944;11.010;2023-05-02T06:13:49;3.38;;;1.10;;
39654;SDS011;25336;59.944;11.010;2023-05-02T06:16:16;1.10;;;1.05;;
39654;SDS011;25336;59.944;11.010;2023-05-02T06:18:42;1.42;;;1.05;;
39654;SDS011;25336;59.944;11.010;2023-05-02T06:21:08;1.92;;;1.30;;
39654;SDS011;25336;59.944;11.010;2023-05-02T06:23:34;4.13;;;1.10;;
39654;SDS011;25336;59.944;11.010;2023-05-02T06:26:00;0.95;;;0.93;;
39654;SDS011;25336;59.944;11.010;2023-05-02T06:28:26;1.92;;;1.08;;
39654;SDS011;25336;59.944;11.010;2023-05-02T06:30:59;1.58;;;1.08;;
39654;SDS011;25336;59.944;11.010;2023-05-02T06:33:26;1.33;;;1.10;;
39654;SDS011;25336;59.944;11.010;2023-05-02T06:35:53;3.70;;;1.20;;
39654;SDS011;25336;59.944;11.010;2023-05-02T06:38:18;1.15;;;1.05;;
39654;SDS011;25336;59.944;11.010;2023-05-02T06:40:44;1.42;;;1.00;;
39654;SDS011;25336;59.944;11.010;2023-05-02T06:43:10;4.97;;;1.00;;
39654;SDS011;25336;59.944;11.010;2023-05-02T06:45:36;3.47;;;1.35;;
39654;SDS011;25336;59.944;11.010;2023-05-02T06:48:02;3.50;;;1.60;;
39654;SDS011;25336;59.944;11.010;2023-05-02T06:50:28;2.05;;;1.33;;
39654;SDS011;25336;59.944;11.010;2023-05-02T06:52:54;3.90;;;1.30;;
39654;SDS011;25336;59.944;11.010;2023-05-02T06:55:20;1.30;;;1.05;;
39654;SDS011;25336;59.944;11.010;2023-05-02T06:57:45;3.22;;;1.20;;
39654;SDS011;25336;59.944;11.010;2023-05-02T07:00:13;2.97;;;1.10;;
39654;SDS011;25336;59.944;11.010;2023-05-02T07:02:40;1.48;;;1.13;;
39654;SDS011;25336;59.944;11.010;2023-05-02T07:05:05;0.80;;;0.80;;
39654;SDS011;25336;59.944;11.010;2023-05-02T07:07:31;1.45;;;1.00;;
39654;SDS011;25336;59.944;11.010;2023-05-02T07:09:57;1.15;;;1.05;;
39654;SDS011;25336;59.944;11.010;2023-05-02T07:12:24;1.67;;;1.20;;
39654;SDS011;25336;59.944;11.010;2023-05-02T07:14:50;1.10;;;1.00;;
39654;SDS011;25336;59.944;11.010;2023-05-02T07:17:16;6.75;;;2.53;;
39654;SDS011;25336;59.944;11.010;2023-05-02T07:19:42;6.05;;;1.48;;
39654;SDS011;25336;59.944;11.010;2023-05-02T07:22:07;1.55;;;1.23;;
39654;SDS011;25336;59.944;11.010;2023-05-02T07:24:33;1.25;;;1.00;;
39654;SDS011;25336;59.944;11.010;2023-05-02T07:27:00;1.95;;;1.33;;
39654;SDS011;25336;59.944;11.010;2023-05-02T07:29:27;5.65;;;1.40;;
39654;SDS011;25336;59.944;11.010;2023-05-02T07:31:52;2.75;;;1.20;;
39654;SDS011;25336;59.944;11.010;2023-05-02T07:34:18;7.25;;;1.38;;
39654;SDS011;25336;59.944;11.010;2023-05-02T07:36:43;3.35;;;1.23;;
39654;SDS011;25336;59.944;11.010;2023-05-02T07:39:09;8.00;;;1.95;;
39654;SDS011;25336;59.944;11.010;2023-05-02T07:41:35;1.15;;;0.98;;
39654;SDS011;25336;59.944;11.010;2023-05-02T07:44:00;3.22;;;1.10;;
39654;SDS011;25336;59.944;11.010;2023-05-02T07:46:26;2.38;;;0.95;;
39654;SDS011;25336;59.944;11.010;2023-05-02T07:48:53;1.85;;;0.90;;
39654;SDS011;25336;59.944;11.010;2023-05-02T07:51:19;6.22;;;1.85;;
39654;SDS011;25336;59.944;11.010;2023-05-02T07:53:45;1.85;;;0.75;;
39654;SDS011;25336;59.944;11.010;2023-05-02T07:56:14;3.70;;;0.80;;
39654;SDS011;25336;59.944;11.010;2023-05-02T07:58:40;2.63;;;1.63;;
39654;SDS011;25336;59.944;11.010;2023-05-02T08:01:05;2.88;;;1.00;;
39654;SDS011;25336;59.944;11.010;2023-05-02T08:03:31;3.55;;;0.95;;
39654;SDS011;25336;59.944;11.010;2023-05-02T08:05:56;1.98;;;1.02;;
39654;SDS011;25336;59.944;11.010;2023-05-02T08:08:22;0.98;;;0.90;;
39654;SDS011;25336;59.944;11.010;2023-05-02T08:10:48;1.00;;;0.88;;
39654;SDS011;25336;59.944;11.010;2023-05-02T08:13:15;1.42;;;0.82;;
39654;SDS011;25336;59.944;11.010;2023-05-02T08:15:41;1.58;;;0.82;;
39654;SDS011;25336;59.944;11.010;2023-05-02T08:18:06;1.42;;;0.80;;
39654;SDS011;25336;59.944;11.010;2023-05-02T08:20:32;1.77;;;1.00;;
39654;SDS011;25336;59.944;11.010;2023-05-02T08:22:58;6.15;;;0.95;;
39654;SDS011;25336;59.944;11.010;2023-05-02T08:25:23;1.33;;;1.02;;
39654;SDS011;25336;59.944;11.010;2023-05-02T08:27:49;1.85;;;1.08;;
39654;SDS011;25336;59.944;11.010;2023-05-02T08:30:14;1.83;;;0.82;;
39654;SDS011;25336;59.944;11.010;2023-05-02T08:32:40;1.70;;;1.20;;
39654;SDS011;25336;59.944;11.010;2023-05-02T08:35:06;4.53;;;1.00;;
39654;SDS011;25336;59.944;11.010;2023-05-02T08:37:32;0.90;;;0.75;;
39654;SDS011;25336;59.944;11.010;2023-05-02T08:39:58;1.30;;;0.80;;
39654;SDS011;25336;59.944;11.010;2023-05-02T08:42:24;2.30;;;0.98;;
39654;SDS011;25336;59.944;11.010;2023-05-02T08:44:52;2.97;;;0.77;;
39654;SDS011;25336;59.944;11.010;2023-05-02T08:47:18;3.13;;;1.15;;
39654;SDS011;25336;59.944;11.010;2023-05-02T08:49:45;5.03;;;1.10;;
39654;SDS011;25336;59.944;11.010;2023-05-02T08:52:12;2.80;;;1.00;;
39654;SDS011;25336;59.944;11.010;2023-05-02T08:54:39;1.52;;;0.93;;
39654;SDS011;25336;59.944;11.010;2023-05-02T08:57:06;4.03;;;0.80;;
39654;SDS011;25336;59.944;11.010;2023-05-02T08:59:32;0.95;;;0.60;;
39654;SDS011;25336;59.944;11.010;2023-05-02T09:01:58;1.02;;;0.70;;
39654;SDS011;25336;59.944;11.010;2023-05-02T09:04:29;3.45;;;0.70;;
39654;SDS011;25336;59.944;11.010;2023-05-02T09:06:58;2.50;;;0.90;;
39654;SDS011;25336;59.944;11.010;2023-05-02T09:09:25;0.68;;;0.60;;
39654;SDS011;25336;59.944;11.010;2023-05-02T09:11:51;0.40;;;0.40;;
39654;SDS011;25336;59.944;11.010;2023-05-02T09:14:17;0.52;;;0.40;;
39654;SDS011;25336;59.944;11.010;2023-05-02T09:16:43;0.50;;;0.50;;
39654;SDS011;25336;59.944;11.010;2023-05-02T09:19:10;0.50;;;0.50;;
39654;SDS011;25336;59.944;11.010;2023-05-02T09:21:47;0.57;;;0.50;;
39654;SDS011;25336;59.944;11.010;2023-05-02T09:29:27;0.68;;;0.68;;
39654;SDS011;25336;59.944;11.010;2023-05-02T09:32:03;1.65;;;0.90;;
39654;SDS011;25336;59.944;11.010;2023-05-02T09:34:29;0.50;;;0.50;;
39654;SDS011;25336;59.944;11.010;2023-05-02T09:36:55;0.90;;;0.68;;
39654;SDS011;25336;59.944;11.010;2023-05-02T09:39:25;1.27;;;0.75;;
39654;SDS011;25336;59.944;11.010;2023-05-02T09:41:53;1.23;;;0.88;;
39654;SDS011;25336;59.944;11.010;2023-05-02T09:44:20;1.08;;;0.93;;
39654;SDS011;25336;59.944;11.010;2023-05-02T09:46:47;0.82;;;0.60;;
39654;SDS011;25336;59.944;11.010;2023-05-02T09:49:18;3.88;;;0.70;;
39654;SDS011;25336;59.944;11.010;2023-05-02T09:51:45;7.95;;;0.80;;
39654;SDS011;25336;59.944;11.010;2023-05-02T09:54:12;1.00;;;0.63;;
39654;SDS011;25336;59.944;11.010;2023-05-02T09:56:58;0.55;;;0.40;;
39654;SDS011;25336;59.944;11.010;2023-05-02T09:59:23;0.50;;;0.40;;
39654;SDS011;25336;59.944;11.010;2023-05-02T10:01:53;0.60;;;0.60;;
39654;SDS011;25336;59.944;11.010;2023-05-02T10:04:24;0.60;;;0.60;;
39654;SDS011;25336;59.944;11.010;2023-05-02T10:06:50;0.65;;;0.60;;
39654;SDS011;25336;59.944;11.010;2023-05-02T10:09:16;0.40;;;0.40;;
39654;SDS011;25336;59.944;11.010;2023-05-02T10:11:44;0.30;;;0.30;;
39654;SDS011;25336;59.944;11.010;2023-05-02T10:14:11;1.23;;;0.70;;
39654;SDS011;25336;59.944;11.010;2023-05-02T10:16:44;0.73;;;0.60;;
39654;SDS011;25336;59.944;11.010;2023-05-02T10:19:19;1.92;;;0.60;;
39654;SDS011;25336;59.944;11.010;2023-05-02T10:21:50;0.65;;;0.60;;
39654;SDS011;25336;59.944;11.010;2023-05-02T10:24:18;2.28;;;0.70;;
39654;SDS011;25336;59.944;11.010;2023-05-02T10:26:45;1.90;;;0.90;;
39654;SDS011;25336;59.944;11.010;2023-05-02T10:29:12;0.75;;;0.60;;
39654;SDS011;25336;59.944;11.010;2023-05-02T10:31:38;1.95;;;0.57;;
39654;SDS011;25336;59.944;11.010;2023-05-02T10:34:07;1.77;;;0.60;;
39654;SDS011;25336;59.944;11.010;2023-05-02T10:36:35;2.05;;;0.60;;
39654;SDS011;25336;59.944;11.010;2023-05-02T10:39:00;1.63;;;0.70;;
39654;SDS011;25336;59.944;11.010;2023-05-02T10:41:29;5.68;;;0.50;;
39654;SDS011;25336;59.944;11.010;2023-05-02T10:43:57;1.55;;;0.80;;
39654;SDS011;25336;59.944;11.010;2023-05-02T10:46:31;0.47;;;0.47;;
39654;SDS011;25336;59.944;11.010;2023-05-02T10:49:01;1.35;;;0.70;;
39654;SDS011;25336;59.944;11.010;2023-05-02T10:51:47;0.68;;;0.45;;
39654;SDS011;25336;59.944;11.010;2023-05-02T10:54:23;0.47;;;0.47;;
39654;SDS011;25336;59.944;11.010;2023-05-02T10:57:07;0.50;;;0.50;;
39654;SDS011;25336;59.944;11.010;2023-05-02T10:59:36;0.95;;;0.50;;
39654;SDS011;25336;59.944;11.010;2023-05-02T11:02:45;0.32;;;0.32;;
39654;SDS011;25336;59.944;11.010;2023-05-02T11:05:04;0.40;;;0.40;;
39654;SDS011;25336;59.944;11.010;2023-05-02T11:07:32;0.55;;;0.55;;
39654;SDS011;25336;59.944;11.010;2023-05-02T11:12:45;0.50;;;0.50;;
39654;SDS011;25336;59.944;11.010;2023-05-02T11:20:30;4.18;;;0.50;;
39654;SDS011;25336;59.944;11.010;2023-05-02T11:22:57;0.55;;;0.55;;
39654;SDS011;25336;59.944;11.010;2023-05-02T11:26:19;0.60;;;0.60;;
39654;SDS011;25336;59.944;11.010;2023-05-02T11:31:01;4.07;;;0.68;;
39654;SDS011;25336;59.944;11.010;2023-05-02T11:33:28;0.50;;;0.50;;
39654;SDS011;25336;59.944;11.010;2023-05-02T11:35:54;0.45;;;0.40;;
39654;SDS011;25336;59.944;11.010;2023-05-02T11:38:23;0.98;;;0.40;;
39654;SDS011;25336;59.944;11.010;2023-05-02T11:40:57;0.40;;;0.40;;
39654;SDS011;25336;59.944;11.010;2023-05-02T11:43:24;0.40;;;0.40;;
39654;SDS011;25336;59.944;11.010;2023-05-02T11:45:52;0.60;;;0.40;;
39654;SDS011;25336;59.944;11.010;2023-05-02T11:48:19;0.68;;;0.40;;
39654;SDS011;25336;59.944;11.010;2023-05-02T11:50:47;0.57;;;0.57;;
39654;SDS011;25336;59.944;11.010;2023-05-02T11:53:16;0.47;;;0.47;;
39654;SDS011;25336;59.944;11.010;2023-05-02T11:55:47;0.32;;;0.32;;
39654;SDS011;25336;59.944;11.010;2023-05-02T11:58:18;0.70;;;0.30;;
39654;SDS011;25336;59.944;11.010;2023-05-02T12:00:46;1.52;;;0.50;;
39654;SDS011;25336;59.944;11.010;2023-05-02T12:03:28;0.68;;;0.60;;
39654;SDS011;25336;59.944;11.010;2023-05-02T12:06:07;0.93;;;0.70;;
39654;SDS011;25336;59.944;11.010;2023-05-02T12:08:35;0.63;;;0.50;;
39654;SDS011;25336;59.944;11.010;2023-05-02T12:11:01;3.92;;;0.50;;
39654;SDS011;25336;59.944;11.010;2023-05-02T12:13:26;3.53;;;0.52;;
39654;SDS011;25336;59.944;11.010;2023-05-02T12:15:53;0.85;;;0.50;;
39654;SDS011;25336;59.944;11.010;2023-05-02T12:18:20;2.40;;;0.40;;
39654;SDS011;25336;59.944;11.010;2023-05-02T12:20:48;1.58;;;0.60;;
39654;SDS011;25336;59.944;11.010;2023-05-02T12:23:15;1.40;;;0.52;;
39654;SDS011;25336;59.944;11.010;2023-05-02T12:25:42;0.40;;;0.40;;
39654;SDS011;25336;59.944;11.010;2023-05-02T12:28:08;0.47;;;0.47;;
39654;SDS011;25336;59.944;11.010;2023-05-02T12:30:35;0.45;;;0.40;;
39654;SDS011;25336;59.944;11.010;2023-05-02T12:33:05;0.65;;;0.40;;
39654;SDS011;25336;59.944;11.010;2023-05-02T12:35:32;1.20;;;0.40;;
39654;SDS011;25336;59.944;11.010;2023-05-02T12:40:34;0.60;;;0.45;;
39654;SDS011;25336;59.944;11.010;2023-05-02T12:43:01;2.42;;;0.60;;
39654;SDS011;25336;59.944;11.010;2023-05-02T12:45:29;0.65;;;0.63;;
39654;SDS011;25336;59.944;11.010;2023-05-02T12:48:01;1.30;;;0.68;;
39654;SDS011;25336;59.944;11.010;2023-05-02T12:50:46;0.40;;;0.40;;
39654;SDS011;25336;59.944;11.010;2023-05-02T12:53:12;0.50;;;0.50;;
39654;SDS011;25336;59.944;11.010;2023-05-02T12:55:38;0.50;;;0.50;;
39654;SDS011;25336;59.944;11.010;2023-05-02T12:58:04;0.45;;;0.45;;
39654;SDS011;25336;59.944;11.010;2023-05-02T13:00:31;0.75;;;0.60;;
39654;SDS011;25336;59.944;11.010;2023-05-02T13:03:00;0.52;;;0.52;;
39654;SDS011;25336;59.944;11.010;2023-05-02T13:05:26;0.98;;;0.70;;
39654;SDS011;25336;59.944;11.010;2023-05-02T13:07:51;1.73;;;0.50;;
39654;SDS011;25336;59.944;11.010;2023-05-02T13:10:17;0.57;;;0.50;;
39654;SDS011;25336;59.944;11.010;2023-05-02T13:12:43;1.38;;;0.50;;
39654;SDS011;25336;59.944;11.010;2023-05-02T13:15:12;0.80;;;0.50;;
39654;SDS011;25336;59.944;11.010;2023-05-02T13:17:38;0.70;;;0.50;;
39654;SDS011;25336;59.944;11.010;2023-05-02T13:20:04;0.68;;;0.47;;
39654;SDS011;25336;59.944;11.010;2023-05-02T13:22:31;4.13;;;0.60;;
39654;SDS011;25336;59.944;11.010;2023-05-02T13:24:56;0.85;;;0.40;;
39654;SDS011;25336;59.944;11.010;2023-05-02T13:27:22;1.65;;;0.40;;
39654;SDS011;25336;59.944;11.010;2023-05-02T13:29:48;0.57;;;0.57;;
39654;SDS011;25336;59.944;11.010;2023-05-02T13:32:14;2.63;;;0.52;;
39654;SDS011;25336;59.944;11.010;2023-05-02T13:34:40;0.70;;;0.50;;
39654;SDS011;25336;59.944;11.010;2023-05-02T13:37:06;4.95;;;0.40;;
39654;SDS011;25336;59.944;11.010;2023-05-02T13:39:32;1.00;;;0.90;;
39654;SDS011;25336;59.944;11.010;2023-05-02T13:41:58;0.65;;;0.65;;
39654;SDS011;25336;59.944;11.010;2023-05-02T13:44:23;0.70;;;0.70;;
39654;SDS011;25336;59.944;11.010;2023-05-02T13:46:49;1.30;;;0.60;;
39654;SDS011;25336;59.944;11.010;2023-05-02T13:49:14;2.22;;;0.50;;
39654;SDS011;25336;59.944;11.010;2023-05-02T13:51:40;0.55;;;0.50;;
39654;SDS011;25336;59.944;11.010;2023-05-02T13:54:06;0.82;;;0.60;;
39654;SDS011;25336;59.944;11.010;2023-05-02T13:56:31;0.90;;;0.68;;
39654;SDS011;25336;59.944;11.010;2023-05-02T13:58:57;2.55;;;0.45;;
39654;SDS011;25336;59.944;11.010;2023-05-02T14:01:22;0.35;;;0.35;;
39654;SDS011;25336;59.944;11.010;2023-05-02T14:03:50;1.27;;;0.55;;
39654;SDS011;25336;59.944;11.010;2023-05-02T14:06:16;2.35;;;1.35;;
39654;SDS011;25336;59.944;11.010;2023-05-02T14:08:42;1.10;;;1.00;;
39654;SDS011;25336;59.944;11.010;2023-05-02T14:11:09;0.60;;;0.60;;
39654;SDS011;25336;59.944;11.010;2023-05-02T14:13:35;0.85;;;0.57;;
39654;SDS011;25336;59.944;11.010;2023-05-02T14:16:01;1.48;;;1.05;;
39654;SDS011;25336;59.944;11.010;2023-05-02T14:18:27;0.40;;;0.40;;
39654;SDS011;25336;59.944;11.010;2023-05-02T14:20:52;0.40;;;0.40;;
39654;SDS011;25336;59.944;11.010;2023-05-02T14:23:18;0.40;;;0.40;;
39654;SDS011;25336;59.944;11.010;2023-05-02T14:25:43;0.47;;;0.40;;
39654;SDS011;25336;59.944;11.010;2023-05-02T14:28:09;0.52;;;0.52;;
39654;SDS011;25336;59.944;11.010;2023-05-02T14:30:35;1.90;;;0.52;;
39654;SDS011;25336;59.944;11.010;2023-05-02T14:33:01;0.55;;;0.55;;
39654;SDS011;25336;59.944;11.010;2023-05-02T14:35:27;5.88;;;0.50;;
39654;SDS011;25336;59.944;11.010;2023-05-02T14:37:52;3.03;;;1.05;;
39654;SDS011;25336;59.944;11.010;2023-05-02T14:40:18;0.52;;;0.45;;
39654;SDS011;25336;59.944;11.010;2023-05-02T14:42:43;1.75;;;0.77;;
39654;SDS011;25336;59.944;11.010;2023-05-02T14:45:09;0.40;;;0.40;;
39654;SDS011;25336;59.944;11.010;2023-05-02T14:47:35;0.68;;;0.40;;
39654;SDS011;25336;59.944;11.010;2023-05-02T14:50:04;3.58;;;0.40;;
39654;SDS011;25336;59.944;11.010;2023-05-02T14:52:30;1.05;;;0.98;;
39654;SDS011;25336;59.944;11.010;2023-05-02T14:54:58;2.80;;;2.05;;
39654;SDS011;25336;59.944;11.010;2023-05-02T14:57:24;4.60;;;3.28;;
39654;SDS011;25336;59.944;11.010;2023-05-02T14:59:50;1.25;;;1.00;;
39654;SDS011;25336;59.944;11.010;2023-05-02T15:02:15;1.25;;;1.15;;
39654;SDS011;25336;59.944;11.010;2023-05-02T15:04:41;2.60;;;1.00;;
39654;SDS011;25336;59.944;11.010;2023-05-02T15:07:06;0.73;;;0.50;;
39654;SDS011;25336;59.944;11.010;2023-05-02T15:09:32;0.50;;;0.50;;
39654;SDS011;25336;59.944;11.010;2023-05-02T15:11:58;2.17;;;0.55;;
39654;SDS011;25336;59.944;11.010;2023-05-02T15:14:23;0.50;;;0.50;;
39654;SDS011;25336;59.944;11.010;2023-05-02T15:16:49;0.40;;;0.40;;
39654;SDS011;25336;59.944;11.010;2023-05-02T15:19:15;3.83;;;0.50;;
39654;SDS011;25336;59.944;11.010;2023-05-02T15:21:41;0.82;;;0.45;;
39654;SDS011;25336;59.944;11.010;2023-05-02T15:24:06;1.17;;;0.60;;
39654;SDS011;25336;59.944;11.010;2023-05-02T15:26:32;0.50;;;0.47;;